createdAt,value
2016-08-09T00:00:17.001Z,0
2016-08-09T00:01:16.987Z,0
2016-08-09T00:02:17.683Z,0
2016-08-09T00:03:16.261Z,0
2016-08-09T00:04:16.261Z,0
2016-08-09T00:05:16.941Z,0
2016-08-09T00:06:18.355Z,0
2016-08-09T00:07:18.350Z,0
2016-08-09T00:08:16.212Z,0
2016-08-09T00:09:16.207Z,0
2016-08-09T00:10:17.618Z,0
2016-08-09T00:11:16.887Z,0
2016-08-09T00:12:16.886Z,0
2016-08-09T00:13:17.569Z,0
2016-08-09T00:14:16.348Z,0
2016-08-09T00:15:16.847Z,0
2016-08-09T00:16:16.834Z,0
2016-08-09T00:17:17.533Z,0
2016-08-09T00:18:16.816Z,0
2016-08-09T00:19:16.797Z,0
2016-08-09T00:20:17.498Z,0
2016-08-09T00:21:16.086Z,0
2016-08-09T00:22:17.491Z,0
2016-08-09T00:23:16.766Z,0
2016-08-09T00:24:16.740Z,0
2016-08-09T00:25:16.749Z,0
2016-08-09T00:26:17.436Z,0
2016-08-09T00:27:16.011Z,0
2016-08-09T00:28:18.130Z,0
2016-08-09T00:29:17.412Z,0
2016-08-09T00:30:15.982Z,0
2016-08-09T00:31:17.376Z,0
2016-08-09T00:32:17.386Z,0
2016-08-09T00:33:15.943Z,0
2016-08-09T00:34:17.359Z,0
2016-08-09T00:35:15.924Z,0
2016-08-09T00:36:17.330Z,0
2016-08-09T00:37:16.614Z,0
2016-08-09T00:38:16.607Z,0
2016-08-09T00:39:17.309Z,0
2016-08-09T00:40:15.873Z,0
2016-08-09T00:41:15.870Z,0
2016-08-09T00:42:17.280Z,0
2016-08-09T00:43:17.255Z,0
2016-08-09T00:44:15.850Z,0
2016-08-09T00:45:16.531Z,0
2016-08-09T00:46:17.935Z,0
2016-08-09T00:47:16.507Z,0
2016-08-09T00:48:15.794Z,0
2016-08-09T00:49:17.196Z,0
2016-08-09T00:50:16.477Z,0
2016-08-09T00:51:17.179Z,0
2016-08-09T00:52:16.459Z,0
2016-08-09T00:53:15.743Z,0
2016-08-09T00:54:16.437Z,0
2016-08-09T00:55:16.439Z,0
2016-08-09T00:56:17.829Z,0
2016-08-09T00:57:16.403Z,0
2016-08-09T00:58:15.682Z,0
2016-08-09T00:59:16.375Z,0
2016-08-09T01:00:15.664Z,0
2016-08-09T01:01:16.373Z,0
2016-08-09T01:03:16.340Z,0
2016-08-09T01:04:16.540Z,0
2016-08-09T01:05:17.034Z,0
2016-08-09T01:06:17.014Z,0
2016-08-09T01:07:16.298Z,0
2016-08-09T01:08:16.291Z,0
2016-08-09T01:09:16.276Z,0
2016-08-09T01:10:16.970Z,0
2016-08-09T01:11:16.253Z,0
2016-08-09T01:12:16.952Z,0
2016-08-09T01:13:16.948Z,0
2016-08-09T01:14:16.222Z,0
2016-08-09T01:15:16.928Z,0
2016-08-09T01:16:16.208Z,0
2016-08-09T01:18:16.186Z,0
2016-08-09T01:19:16.169Z,0
2016-08-09T01:20:16.162Z,0
2016-08-09T01:21:16.867Z,0
2016-08-09T01:22:16.844Z,0
2016-08-09T01:23:16.839Z,0
2016-08-09T01:24:16.837Z,0
2016-08-09T01:25:15.412Z,0
2016-08-09T01:26:16.102Z,0
2016-08-09T01:27:16.090Z,0
2016-08-09T01:28:16.077Z,0
2016-08-09T01:29:15.360Z,0
2016-08-09T01:30:16.058Z,0
2016-08-09T01:31:15.339Z,0
2016-08-09T01:33:16.747Z,0
2016-08-09T01:34:16.736Z,0
2016-08-09T01:35:16.722Z,0
2016-08-09T01:36:15.299Z,0
2016-08-09T01:37:15.276Z,0
2016-08-09T01:38:15.973Z,0
2016-08-09T01:39:15.966Z,0
2016-08-09T01:40:15.956Z,0
2016-08-09T01:41:16.647Z,0
2016-08-09T01:42:16.645Z,0
2016-08-09T01:43:15.219Z,0
2016-08-09T01:44:15.203Z,0
2016-08-09T01:45:15.903Z,0
2016-08-09T01:46:15.890Z,0
2016-08-09T01:48:16.583Z,0
2016-08-09T01:49:15.153Z,0
2016-08-09T01:50:15.144Z,0
2016-08-09T01:51:15.836Z,0
2016-08-09T01:52:15.129Z,0
2016-08-09T01:53:15.827Z,0
2016-08-09T01:54:15.810Z,0
2016-08-09T01:55:16.500Z,0
2016-08-09T01:56:15.788Z,0
2016-08-09T01:57:15.777Z,0
2016-08-09T01:58:15.767Z,0
2016-08-09T01:59:15.757Z,0
2016-08-09T02:00:15.746Z,0
2016-08-09T02:01:15.743Z,0
2016-08-09T02:02:16.432Z,0
2016-08-09T02:03:15.016Z,0
2016-08-09T02:04:14.999Z,0
2016-08-09T02:05:15.692Z,0
2016-08-09T02:06:16.399Z,0
2016-08-09T02:07:16.388Z,0
2016-08-09T02:08:15.678Z,0
2016-08-09T02:09:14.972Z,0
2016-08-09T02:10:15.643Z,0
2016-08-09T02:11:16.341Z,0
2016-08-09T02:12:15.619Z,0
2016-08-09T02:13:16.316Z,0
2016-08-09T02:14:15.595Z,0
2016-08-09T02:15:16.300Z,0
2016-08-09T02:16:14.877Z,0
2016-08-09T02:17:15.569Z,0
2016-08-09T02:18:16.974Z,0
2016-08-09T02:19:15.557Z,0
2016-08-09T02:20:16.245Z,0
2016-08-09T02:21:16.240Z,0
2016-08-09T02:22:16.232Z,0
2016-08-09T02:23:14.800Z,0
2016-08-09T02:24:15.513Z,0
2016-08-09T02:25:16.192Z,0
2016-08-09T02:26:16.901Z,0
2016-08-09T02:27:15.474Z,0
2016-08-09T02:28:15.454Z,0
2016-08-09T02:29:15.449Z,0
2016-08-09T02:30:15.442Z,0
2016-08-09T02:31:16.139Z,0
2016-08-09T02:32:16.831Z,0
2016-08-09T02:33:16.116Z,0
2016-08-09T02:34:16.108Z,0
2016-08-09T02:35:14.694Z,0
2016-08-09T02:36:15.371Z,0
2016-08-09T02:37:16.066Z,0
2016-08-09T02:38:16.087Z,0
2016-08-09T02:39:14.631Z,0
2016-08-09T02:40:16.050Z,0
2016-08-09T02:41:14.621Z,0
2016-08-09T02:42:16.024Z,0
2016-08-09T02:43:15.310Z,0
2016-08-09T02:44:15.998Z,0
2016-08-09T02:45:14.572Z,0
2016-08-09T02:46:14.560Z,0
2016-08-09T02:47:14.559Z,0
2016-08-09T02:48:15.252Z,0
2016-08-09T02:49:14.527Z,0
2016-08-09T02:50:14.526Z,0
2016-08-09T02:51:15.221Z,0
2016-08-09T02:52:15.207Z,0
2016-08-09T02:53:15.908Z,0
2016-08-09T02:54:15.892Z,0
2016-08-09T02:55:14.473Z,0
2016-08-09T02:56:15.176Z,0
2016-08-09T02:57:14.451Z,0
2016-08-09T02:58:15.152Z,0
2016-08-09T02:59:14.433Z,0
2016-08-09T03:00:15.134Z,0
2016-08-09T03:01:16.527Z,0
2016-08-09T03:02:15.104Z,0
2016-08-09T03:03:16.505Z,0
2016-08-09T03:04:15.992Z,0
2016-08-09T03:05:14.370Z,0
2016-08-09T03:06:15.783Z,0
2016-08-09T03:07:15.057Z,0
2016-08-09T03:08:15.051Z,0
2016-08-09T03:09:15.036Z,0
2016-08-09T03:10:15.732Z,0
2016-08-09T03:11:15.014Z,0
2016-08-09T03:12:15.711Z,0
2016-08-09T03:13:15.699Z,0
2016-08-09T03:14:14.277Z,0
2016-08-09T03:15:15.682Z,0
2016-08-09T03:16:15.670Z,0
2016-08-09T03:17:14.241Z,0
2016-08-09T03:18:14.944Z,0
2016-08-09T03:19:14.216Z,0
2016-08-09T03:20:14.918Z,0
2016-08-09T03:21:15.614Z,0
2016-08-09T03:22:15.604Z,0
2016-08-09T03:23:14.197Z,0
2016-08-09T03:24:15.597Z,0
2016-08-09T03:25:14.863Z,0
2016-08-09T03:26:14.151Z,0
2016-08-09T03:27:14.138Z,0
2016-08-09T03:28:15.554Z,0
2016-08-09T03:29:14.121Z,0
2016-08-09T03:30:15.518Z,0
2016-08-09T03:31:15.517Z,0
2016-08-09T03:32:15.509Z,0
2016-08-09T03:33:15.498Z,0
2016-08-09T03:34:14.067Z,0
2016-08-09T03:35:14.052Z,0
2016-08-09T03:36:14.750Z,0
2016-08-09T03:37:15.455Z,0
2016-08-09T03:38:15.446Z,0
2016-08-09T03:39:16.169Z,0
2016-08-09T03:40:14.004Z,0
2016-08-09T03:41:13.991Z,4
2016-08-09T03:42:14.690Z,4
2016-08-09T03:43:16.100Z,0
2016-08-09T03:44:14.676Z,4
2016-08-09T03:45:14.661Z,4
2016-08-09T03:46:13.946Z,4
2016-08-09T03:47:14.643Z,8
2016-08-09T03:48:14.628Z,8
2016-08-09T03:49:15.328Z,8
2016-08-09T03:50:13.910Z,12
2016-08-09T03:51:15.307Z,12
2016-08-09T03:52:13.886Z,16
2016-08-09T03:53:15.283Z,16
2016-08-09T03:54:13.863Z,16
2016-08-09T03:55:14.554Z,20
2016-08-09T03:56:13.840Z,20
2016-08-09T03:57:14.543Z,24
2016-08-09T03:58:14.531Z,24
2016-08-09T03:59:15.221Z,28
2016-08-09T04:00:13.798Z,32
2016-08-09T04:01:15.214Z,32
2016-08-09T04:02:13.782Z,36
2016-08-09T04:03:14.481Z,40
2016-08-09T04:04:15.180Z,44
2016-08-09T04:05:13.755Z,52
2016-08-09T04:06:13.739Z,56
2016-08-09T04:07:15.140Z,64
2016-08-09T04:08:15.126Z,64
2016-08-09T04:09:15.116Z,68
2016-08-09T04:10:14.398Z,76
2016-08-09T04:11:13.692Z,76
2016-08-09T04:12:14.391Z,80
2016-08-09T04:13:15.102Z,80
2016-08-09T04:14:15.333Z,84
2016-08-09T04:15:13.641Z,84
2016-08-09T04:16:14.340Z,88
2016-08-09T04:17:14.330Z,88
2016-08-09T04:18:14.317Z,88
2016-08-09T04:19:13.600Z,92
2016-08-09T04:20:15.008Z,96
2016-08-09T04:21:14.288Z,104
2016-08-09T04:22:15.010Z,116
2016-08-09T04:23:13.575Z,128
2016-08-09T04:24:14.260Z,144
2016-08-09T04:25:13.544Z,160
2016-08-09T04:26:14.240Z,180
2016-08-09T04:27:14.935Z,196
2016-08-09T04:28:14.938Z,220
2016-08-09T04:29:13.501Z,236
2016-08-09T04:30:14.198Z,268
2016-08-09T04:31:14.194Z,308
2016-08-09T04:32:14.172Z,356
2016-08-09T04:33:14.176Z,392
2016-08-09T04:34:14.859Z,432
2016-08-09T04:35:14.145Z,488
2016-08-09T04:36:13.429Z,548
2016-08-09T04:37:14.840Z,572
2016-08-09T04:38:14.118Z,552
2016-08-09T04:39:14.820Z,496
2016-08-09T04:40:14.806Z,456
2016-08-09T04:41:14.081Z,440
2016-08-09T04:42:14.069Z,424
2016-08-09T04:43:13.354Z,428
2016-08-09T04:44:14.763Z,452
2016-08-09T04:45:14.753Z,500
2016-08-09T04:46:14.742Z,568
2016-08-09T04:47:14.047Z,632
2016-08-09T04:48:13.306Z,672
2016-08-09T04:49:14.724Z,676
2016-08-09T04:50:13.994Z,648
2016-08-09T04:51:13.976Z,584
2016-08-09T04:52:13.980Z,492
2016-08-09T04:53:13.253Z,400
2016-08-09T04:54:15.414Z,324
2016-08-09T04:55:13.243Z,280
2016-08-09T04:56:14.828Z,256
2016-08-09T04:57:13.212Z,244
2016-08-09T04:58:13.206Z,240
2016-08-09T04:59:13.205Z,264
2016-08-09T05:00:14.607Z,320
2016-08-09T05:01:13.894Z,420
2016-08-09T05:02:14.068Z,540
2016-08-09T05:03:13.865Z,680
2016-08-09T05:04:13.556Z,812
2016-08-09T05:05:13.836Z,936
2016-08-09T05:06:13.836Z,1052
2016-08-09T05:07:13.818Z,1148
2016-08-09T05:08:13.102Z,1232
2016-08-09T05:09:14.511Z,1304
2016-08-09T05:10:14.500Z,1340
2016-08-09T05:11:13.181Z,1380
2016-08-09T05:12:13.072Z,1436
2016-08-09T05:13:13.755Z,1520
2016-08-09T05:14:13.745Z,1572
2016-08-09T05:15:14.451Z,1604
2016-08-09T05:16:13.025Z,1648
2016-08-09T05:17:13.716Z,1728
2016-08-09T05:18:13.704Z,1772
2016-08-09T05:19:14.404Z,1816
2016-08-09T05:20:13.698Z,1844
2016-08-09T05:21:12.969Z,1824
2016-08-09T05:22:14.373Z,1860
2016-08-09T05:23:13.650Z,1908
2016-08-09T05:24:13.645Z,1908
2016-08-09T05:25:12.946Z,1904
2016-08-09T05:26:12.925Z,1896
2016-08-09T05:27:12.908Z,1888
2016-08-09T05:28:12.907Z,1868
2016-08-09T05:29:13.595Z,1836
2016-08-09T05:30:12.872Z,1824
2016-08-09T05:31:14.282Z,1820
2016-08-09T05:32:13.567Z,1748
2016-08-09T05:33:13.557Z,1656
2016-08-09T05:34:14.961Z,1588
2016-08-09T05:35:12.830Z,1592
2016-08-09T05:36:14.227Z,1544
2016-08-09T05:37:13.512Z,1484
2016-08-09T05:38:14.212Z,1452
2016-08-09T05:39:13.502Z,1440
2016-08-09T05:40:14.197Z,1404
2016-08-09T05:41:14.179Z,1380
2016-08-09T05:42:14.177Z,1324
2016-08-09T05:43:14.866Z,1336
2016-08-09T05:44:12.735Z,1376
2016-08-09T05:45:12.726Z,1424
2016-08-09T05:46:12.719Z,1472
2016-08-09T05:47:14.149Z,1516
2016-08-09T05:48:13.404Z,1576
2016-08-09T05:49:13.395Z,1640
2016-08-09T05:50:13.402Z,1708
2016-08-09T05:51:13.380Z,1752
2016-08-09T05:52:14.068Z,1748
2016-08-09T05:53:13.356Z,1744
2016-08-09T05:54:14.061Z,1720
2016-08-09T05:55:13.335Z,1656
2016-08-09T05:56:13.331Z,1636
2016-08-09T05:57:12.604Z,1652
2016-08-09T05:58:14.715Z,1696
2016-08-09T05:59:14.709Z,1756
2016-08-09T06:00:14.036Z,1828
2016-08-09T06:01:12.568Z,1924
2016-08-09T06:02:13.966Z,2072
2016-08-09T06:03:13.254Z,2164
2016-08-09T06:04:14.652Z,2284
2016-08-09T06:05:13.233Z,2412
2016-08-09T06:06:13.239Z,2500
2016-08-09T06:07:13.917Z,2564
2016-08-09T06:08:13.917Z,2744
2016-08-09T06:09:13.911Z,3000
2016-08-09T06:10:13.180Z,3340
2016-08-09T06:11:13.179Z,3688
2016-08-09T06:12:13.155Z,4000
2016-08-09T06:13:13.153Z,4284
2016-08-09T06:14:13.852Z,4452
2016-08-09T06:15:13.303Z,4512
2016-08-09T06:16:13.825Z,4476
2016-08-09T06:17:13.814Z,4232
2016-08-09T06:19:12.380Z,3560
2016-08-09T06:20:12.378Z,3396
2016-08-09T06:21:13.065Z,3380
2016-08-09T06:22:13.062Z,3584
2016-08-09T06:23:13.062Z,3892
2016-08-09T06:24:13.760Z,4184
2016-08-09T06:25:13.756Z,4316
2016-08-09T06:26:12.321Z,4280
2016-08-09T06:27:13.012Z,4116
2016-08-09T06:28:13.001Z,3896
2016-08-09T06:29:12.997Z,3688
2016-08-09T06:30:13.895Z,3508
2016-08-09T06:31:14.402Z,3404
2016-08-09T06:32:12.261Z,3336
2016-08-09T06:33:13.672Z,3236
2016-08-09T06:34:14.372Z,3064
2016-08-09T06:35:13.667Z,2832
2016-08-09T06:36:12.925Z,2576
2016-08-09T06:37:13.623Z,2360
2016-08-09T06:38:13.629Z,2180
2016-08-09T06:39:12.892Z,2088
2016-08-09T06:40:12.886Z,2092
2016-08-09T06:41:12.884Z,2116
2016-08-09T06:42:12.865Z,2172
2016-08-09T06:43:12.153Z,2236
2016-08-09T06:44:12.144Z,2420
2016-08-09T06:45:12.132Z,2456
2016-08-09T06:46:12.831Z,2500
2016-08-09T06:47:12.816Z,2528
2016-08-09T06:48:12.825Z,2584
2016-08-09T06:49:13.516Z,2628
2016-08-09T06:52:12.045Z,2632
2016-08-09T06:53:13.464Z,2684
2016-08-09T06:54:13.459Z,2748
2016-08-09T06:55:12.744Z,2840
2016-08-09T06:56:12.027Z,3104
2016-08-09T06:57:13.445Z,2808
2016-08-09T06:58:12.017Z,2860
2016-08-09T06:59:13.413Z,3032
2016-08-09T07:00:12.700Z,3248
2016-08-09T07:01:11.981Z,3544
2016-08-09T07:02:12.670Z,3752
2016-08-09T07:03:12.661Z,3508
2016-08-09T07:04:13.357Z,3348
2016-08-09T07:05:13.546Z,3168
2016-08-09T07:06:13.398Z,3612
2016-08-09T07:07:12.617Z,3648
2016-08-09T07:08:11.907Z,3148
2016-08-09T07:09:13.307Z,2948
2016-08-09T07:10:12.595Z,3020
2016-08-09T07:11:12.587Z,2936
2016-08-09T07:12:13.988Z,2920
2016-08-09T07:13:13.272Z,3028
2016-08-09T07:14:12.598Z,3000
2016-08-09T07:15:11.836Z,3040
2016-08-09T07:16:11.830Z,3048
2016-08-09T07:17:13.230Z,3168
2016-08-09T07:18:12.518Z,3288
2016-08-09T07:19:12.509Z,3488
2016-08-09T07:20:13.202Z,3668
2016-08-09T07:21:12.483Z,3712
2016-08-09T07:22:12.474Z,3436
2016-08-09T07:23:12.488Z,3256
2016-08-09T07:24:12.454Z,3228
2016-08-09T07:25:12.451Z,3284
2016-08-09T07:26:13.146Z,3308
2016-08-09T07:27:11.729Z,3352
2016-08-09T07:28:12.419Z,3460
2016-08-09T07:29:12.419Z,3704
2016-08-09T07:30:13.103Z,4064
2016-08-09T07:31:12.386Z,4412
2016-08-09T07:32:13.094Z,5048
2016-08-09T07:33:13.077Z,5340
2016-08-09T07:34:11.652Z,5324
2016-08-09T07:35:12.347Z,4640
2016-08-09T07:36:12.408Z,4164
2016-08-09T07:37:13.035Z,4112
2016-08-09T07:38:13.032Z,4212
2016-08-09T07:39:12.333Z,4176
2016-08-09T07:40:13.009Z,4632
2016-08-09T07:41:12.997Z,4640
2016-08-09T07:42:12.285Z,5364
2016-08-09T07:43:12.282Z,6096
2016-08-09T07:44:12.979Z,7368
2016-08-09T07:45:11.546Z,8456
2016-08-09T07:46:12.955Z,8420
2016-08-09T07:47:12.954Z,10376
2016-08-09T07:48:12.267Z,9572
2016-08-09T07:49:12.949Z,9104
2016-08-09T07:50:13.629Z,9448
2016-08-09T07:51:11.493Z,10256
2016-08-09T07:52:11.497Z,11056
2016-08-09T07:53:12.913Z,11432
2016-08-09T07:54:12.188Z,11480
2016-08-09T07:55:12.184Z,11556
2016-08-09T07:56:11.457Z,10988
2016-08-09T07:57:12.149Z,9972
2016-08-09T07:58:12.144Z,10112
2016-08-09T07:59:12.138Z,10692
2016-08-09T08:00:13.552Z,10256
2016-08-09T08:01:12.123Z,9952
2016-08-09T08:02:12.120Z,9284
2016-08-09T08:03:12.111Z,8192
2016-08-09T08:04:12.095Z,8084
2016-08-09T08:05:12.102Z,7496
2016-08-09T08:06:12.093Z,7800
2016-08-09T08:07:12.079Z,9872
2016-08-09T08:08:11.362Z,9372
2016-08-09T08:09:12.064Z,8968
2016-08-09T08:10:12.055Z,9140
2016-08-09T08:11:12.045Z,9444
2016-08-09T08:12:13.469Z,10748
2016-08-09T08:13:12.738Z,9972
2016-08-09T08:14:12.741Z,11004
2016-08-09T08:15:12.721Z,11992
2016-08-09T08:16:12.009Z,14072
2016-08-09T08:17:11.368Z,17088
2016-08-09T08:18:11.287Z,20384
2016-08-09T08:19:12.693Z,20544
2016-08-09T08:20:13.401Z,15304
2016-08-09T08:21:11.266Z,16320
2016-08-09T08:22:11.963Z,21152
2016-08-09T08:23:12.668Z,19168
2016-08-09T08:24:12.660Z,18752
2016-08-09T08:25:11.942Z,20512
2016-08-09T08:26:12.638Z,16960
2016-08-09T08:27:11.220Z,15756
2016-08-09T08:28:11.920Z,17888
2016-08-09T08:29:12.619Z,15564
2016-08-09T08:30:11.201Z,13092
2016-08-09T08:31:13.323Z,11964
2016-08-09T08:32:12.605Z,11876
2016-08-09T08:33:11.934Z,10076
2016-08-09T08:34:11.882Z,9804
2016-08-09T08:35:11.905Z,9940
2016-08-09T08:36:11.162Z,11548
2016-08-09T08:37:11.858Z,31456
2016-08-09T08:38:12.564Z,10080
2016-08-09T08:39:11.139Z,12568
2016-08-09T08:40:12.554Z,12384
2016-08-09T08:41:12.539Z,42944
2016-08-09T08:42:12.539Z,44576
2016-08-09T08:43:11.829Z,45696
2016-08-09T08:44:11.832Z,49568
2016-08-09T08:45:11.104Z,36992
2016-08-09T08:46:11.806Z,48864
2016-08-09T08:47:11.807Z,23872
2016-08-09T08:48:12.508Z,35808
2016-08-09T08:49:11.795Z,29664
2016-08-09T08:50:11.791Z,31808
2016-08-09T08:51:11.791Z,33216
2016-08-09T08:52:11.778Z,15608
2016-08-09T08:53:11.769Z,23264
2016-08-09T08:54:11.059Z,13856
2016-08-09T08:55:11.775Z,10176
2016-08-09T08:56:12.468Z,8488
2016-08-09T08:57:13.233Z,8036
2016-08-09T08:58:11.034Z,8064
2016-08-09T08:59:11.055Z,8108
2016-08-09T09:00:11.750Z,8256
2016-08-09T09:01:11.738Z,8612
2016-08-09T09:02:11.019Z,9080
2016-08-09T09:03:11.017Z,9324
2016-08-09T09:04:13.134Z,10308
2016-08-09T09:05:12.638Z,11504
2016-08-09T09:06:11.708Z,13008
2016-08-09T09:07:11.701Z,14604
2016-08-09T09:08:12.403Z,14144
2016-08-09T09:09:11.689Z,13612
2016-08-09T09:10:12.385Z,17216
2016-08-09T09:11:10.969Z,12560
2016-08-09T09:12:12.378Z,9328
2016-08-09T09:13:12.368Z,7920
2016-08-09T09:14:10.952Z,8232
2016-08-09T09:15:12.356Z,9536
2016-08-09T09:16:12.433Z,11752
2016-08-09T09:17:10.946Z,12392
2016-08-09T09:18:10.930Z,11968
2016-08-09T09:19:12.334Z,11016
2016-08-09T09:20:13.032Z,9664
2016-08-09T09:21:11.625Z,8748
2016-08-09T09:22:10.906Z,7912
2016-08-09T09:23:12.312Z,7020
2016-08-09T09:24:10.887Z,6344
2016-08-09T09:25:10.889Z,6060
2016-08-09T09:26:12.294Z,5632
2016-08-09T09:27:12.602Z,5208
2016-08-09T09:28:11.583Z,5272
2016-08-09T09:29:11.574Z,5716
2016-08-09T09:30:12.270Z,6252
2016-08-09T09:31:12.979Z,7000
2016-08-09T09:32:12.253Z,7848
2016-08-09T09:33:12.238Z,9004
2016-08-09T09:34:12.941Z,10080
2016-08-09T09:35:11.524Z,11084
2016-08-09T09:36:10.810Z,12060
2016-08-09T09:37:11.511Z,12420
2016-08-09T09:38:11.510Z,13216
2016-08-09T09:39:12.203Z,14368
2016-08-09T09:40:12.195Z,15160
2016-08-09T09:41:11.486Z,14268
2016-08-09T09:42:12.184Z,13196
2016-08-09T09:43:10.760Z,12556
2016-08-09T09:44:12.165Z,12176
2016-08-09T09:45:10.811Z,12444
2016-08-09T09:46:11.454Z,12440
2016-08-09T09:47:12.149Z,11440
2016-08-09T09:48:12.148Z,10720
2016-08-09T09:49:10.710Z,9340
2016-08-09T09:50:10.761Z,9440
2016-08-09T09:51:11.414Z,9472
2016-08-09T09:52:12.137Z,9032
2016-08-09T09:53:11.401Z,7892
2016-08-09T09:54:11.397Z,7768
2016-08-09T09:55:11.398Z,8200
2016-08-09T09:56:11.377Z,11392
2016-08-09T09:57:12.076Z,6620
2016-08-09T09:58:11.378Z,5796
2016-08-09T09:59:10.647Z,8104
2016-08-09T10:00:12.074Z,6388
2016-08-09T10:01:12.054Z,6764
2016-08-09T10:02:11.346Z,6572
2016-08-09T10:03:12.036Z,6756
2016-08-09T10:04:10.576Z,7740
2016-08-09T10:05:11.308Z,8148
2016-08-09T10:06:12.024Z,10072
2016-08-09T10:07:11.354Z,13788
2016-08-09T10:08:11.995Z,12804
2016-08-09T10:09:10.575Z,20704
2016-08-09T10:10:11.988Z,45120
2016-08-09T10:11:11.973Z,15232
2016-08-09T10:12:11.259Z,10052
2016-08-09T10:13:11.961Z,9636
2016-08-09T10:14:11.959Z,11092
2016-08-09T10:15:12.049Z,14036
2016-08-09T10:16:10.526Z,28128
2016-08-09T10:17:11.935Z,28896
2016-08-09T10:18:11.287Z,18752
2016-08-09T10:20:11.215Z,24896
2016-08-09T10:21:11.912Z,14448
2016-08-09T10:22:11.918Z,14336
2016-08-09T10:23:11.197Z,13300
2016-08-09T10:24:11.892Z,9580
2016-08-09T10:25:10.469Z,17888
2016-08-09T10:26:11.180Z,12572
2016-08-09T10:27:11.870Z,46176
2016-08-09T10:28:12.566Z,12684
2016-08-09T10:29:11.858Z,50784
2016-08-09T10:30:11.858Z,26464
2016-08-09T10:31:11.157Z,73120
2016-08-09T10:32:11.136Z,87520
2016-08-09T10:33:11.834Z,73600
2016-08-09T10:34:11.121Z,84224
2016-08-09T10:35:11.123Z,80448
2016-08-09T10:36:11.124Z,71232
2016-08-09T10:37:12.523Z,77440
2016-08-09T10:38:11.115Z,81632
2016-08-09T10:39:10.408Z,57344
2016-08-09T10:40:11.095Z,93920
2016-08-09T10:41:11.795Z,98720
2016-08-09T10:42:11.796Z,102080
2016-08-09T10:43:10.380Z,104288
2016-08-09T10:44:11.795Z,104128
2016-08-09T10:45:11.786Z,104032
2016-08-09T10:46:11.782Z,103584
2016-08-09T10:47:11.786Z,101856
2016-08-09T10:48:11.783Z,103968
2016-08-09T10:49:10.372Z,10628
2016-08-09T10:50:10.364Z,103136
2016-08-09T10:51:10.360Z,97728
2016-08-09T10:52:11.072Z,99840
2016-08-09T10:53:11.788Z,91488
2016-08-09T10:54:11.067Z,43808
2016-08-09T10:55:11.776Z,44192
2016-08-09T10:56:11.070Z,12176
2016-08-09T10:57:11.067Z,9844
2016-08-09T10:58:11.068Z,11736
2016-08-09T10:59:11.062Z,95104
2016-08-09T11:00:10.636Z,94656
2016-08-09T11:01:11.064Z,90208
2016-08-09T11:02:11.074Z,98336
2016-08-09T11:03:11.061Z,92544
2016-08-09T11:04:11.083Z,15524
2016-08-09T11:05:11.369Z,8440
2016-08-09T11:06:10.376Z,10700
2016-08-09T11:07:11.063Z,90144
2016-08-09T11:08:11.068Z,87232
2016-08-09T11:09:11.771Z,84416
2016-08-09T11:10:10.364Z,83776
2016-08-09T11:11:11.793Z,84128
2016-08-09T11:12:12.486Z,85120
2016-08-09T11:13:12.480Z,87008
2016-08-09T11:14:11.765Z,91968
2016-08-09T11:15:12.496Z,53152
2016-08-09T11:16:11.073Z,27104
2016-08-09T11:17:11.775Z,80448
2016-08-09T11:18:10.368Z,86112
2016-08-09T11:19:11.789Z,91744
2016-08-09T11:20:11.787Z,35520
2016-08-09T11:21:11.779Z,91328
2016-08-09T11:22:12.484Z,42208
2016-08-09T11:23:12.494Z,22432
2016-08-09T11:24:11.792Z,11180
2016-08-09T11:25:11.785Z,12248
2016-08-09T11:26:11.095Z,8072
2016-08-09T11:27:11.800Z,7108
2016-08-09T11:28:12.522Z,7276
2016-08-09T11:29:10.383Z,7728
2016-08-09T11:30:11.798Z,7908
2016-08-09T11:31:11.817Z,7668
2016-08-09T11:32:11.092Z,7024
2016-08-09T11:33:10.373Z,6432
2016-08-09T11:34:12.490Z,5896
2016-08-09T11:35:11.078Z,5424
2016-08-09T11:36:11.075Z,4940
2016-08-09T11:37:11.084Z,4428
2016-08-09T11:38:11.079Z,4148
2016-08-09T11:39:11.077Z,3816
2016-08-09T11:40:11.068Z,3552
2016-08-09T11:41:10.361Z,3448
2016-08-09T11:42:11.068Z,3556
2016-08-09T11:43:11.770Z,3804
2016-08-09T11:44:12.471Z,4136
2016-08-09T11:45:12.469Z,4480
2016-08-09T11:46:12.491Z,4724
2016-08-09T11:47:11.752Z,4696
2016-08-09T11:48:11.039Z,4584
2016-08-09T11:49:11.033Z,4460
2016-08-09T11:50:11.748Z,4336
2016-08-09T11:51:11.744Z,4248
2016-08-09T11:52:11.029Z,4288
2016-08-09T11:53:11.022Z,4444
2016-08-09T11:54:12.415Z,4644
2016-08-09T11:55:12.441Z,4772
2016-08-09T11:56:10.994Z,4728
2016-08-09T11:57:11.013Z,4588
2016-08-09T11:58:10.987Z,4484
2016-08-09T11:59:10.986Z,4392
2016-08-09T12:00:11.742Z,4252
2016-08-09T12:01:12.415Z,4204
2016-08-09T12:02:11.674Z,4212
2016-08-09T12:03:10.251Z,4280
2016-08-09T12:04:10.965Z,4480
2016-08-09T12:05:10.949Z,4772
2016-08-09T12:06:10.944Z,5184
2016-08-09T12:07:11.645Z,5728
2016-08-09T12:08:10.928Z,6480
2016-08-09T12:09:10.926Z,7548
2016-08-09T12:10:10.946Z,8808
2016-08-09T12:11:11.624Z,10368
2016-08-09T12:12:11.621Z,12156
2016-08-09T12:13:10.904Z,14388
2016-08-09T12:14:10.201Z,17504
2016-08-09T12:15:11.600Z,21952
2016-08-09T12:16:10.884Z,57184
2016-08-09T12:17:11.602Z,102112
2016-08-09T12:18:11.584Z,43360
2016-08-09T12:19:11.569Z,103840
2016-08-09T12:20:11.565Z,32800
2016-08-09T12:21:10.150Z,77024
2016-08-09T12:22:12.268Z,54528
2016-08-09T12:23:11.548Z,24288
2016-08-09T12:24:12.254Z,37632
2016-08-09T12:25:10.832Z,62592
2016-08-09T12:26:11.542Z,21376
2016-08-09T12:27:11.530Z,18112
2016-08-09T12:28:11.526Z,16800
2016-08-09T12:29:11.521Z,16388
2016-08-09T12:30:11.514Z,16736
2016-08-09T12:31:10.802Z,15716
2016-08-09T12:32:10.798Z,14500
2016-08-09T12:33:12.211Z,14160
2016-08-09T12:34:11.500Z,13996
2016-08-09T12:35:10.078Z,13776
2016-08-09T12:36:10.077Z,13584
2016-08-09T12:37:11.480Z,12748
2016-08-09T12:38:10.762Z,12480
2016-08-09T12:39:10.761Z,12544
2016-08-09T12:40:11.465Z,13028
2016-08-09T12:41:10.760Z,14360
2016-08-09T12:42:12.173Z,15244
2016-08-09T12:43:11.455Z,16512
2016-08-09T12:44:10.743Z,15976
2016-08-09T12:45:10.736Z,17280
2016-08-09T12:46:10.736Z,18688
2016-08-09T12:47:10.723Z,19744
2016-08-09T12:48:10.722Z,21632
2016-08-09T12:49:11.423Z,24608
2016-08-09T12:50:11.419Z,32640
2016-08-09T12:51:10.704Z,29376
2016-08-09T12:52:10.703Z,37184
2016-08-09T12:53:10.705Z,98752
2016-08-09T12:54:11.397Z,41792
2016-08-09T12:55:10.680Z,27552
2016-08-09T12:56:11.390Z,22944
2016-08-09T12:57:10.675Z,18240
2016-08-09T12:58:10.667Z,15496
2016-08-09T12:59:09.960Z,13628
2016-08-09T13:00:10.668Z,11948
2016-08-09T13:01:10.665Z,10432
2016-08-09T13:02:10.647Z,9148
2016-08-09T13:03:10.654Z,8048
2016-08-09T13:04:09.932Z,7488
2016-08-09T13:05:10.838Z,7412
2016-08-09T13:06:10.629Z,7688
2016-08-09T13:07:09.915Z,9428
2016-08-09T13:08:11.331Z,10828
2016-08-09T13:09:10.619Z,10716
2016-08-09T13:10:11.318Z,10132
2016-08-09T13:11:10.607Z,8976
2016-08-09T13:12:09.889Z,7600
2016-08-09T13:13:11.296Z,6764
2016-08-09T13:14:09.891Z,6368
2016-08-09T13:15:11.288Z,6212
2016-08-09T13:16:09.880Z,6532
2016-08-09T13:17:10.579Z,6464
2016-08-09T13:18:09.862Z,6172
2016-08-09T13:19:11.271Z,6608
2016-08-09T13:20:11.280Z,10300
2016-08-09T13:21:11.258Z,26816
2016-08-09T13:22:11.246Z,85632
2016-08-09T13:23:11.243Z,89408
2016-08-09T13:24:10.534Z,90528
2016-08-09T13:25:10.529Z,91904
2016-08-09T13:26:09.834Z,92160
2016-08-09T13:27:10.563Z,94528
2016-08-09T13:28:10.507Z,91616
2016-08-09T13:29:10.517Z,18784
2016-08-09T13:30:11.211Z,14492
2016-08-09T13:31:10.504Z,12016
2016-08-09T13:32:09.822Z,10384
2016-08-09T13:33:11.200Z,8180
2016-08-09T13:34:11.194Z,7260
2016-08-09T13:35:10.494Z,6780
2016-08-09T13:36:11.191Z,6700
2016-08-09T13:37:11.184Z,6164
2016-08-09T13:38:10.472Z,5204
2016-08-09T13:39:11.180Z,4592
2016-08-09T13:40:11.175Z,4608
2016-08-09T13:41:10.461Z,5060
2016-08-09T13:42:10.464Z,5936
2016-08-09T13:43:11.157Z,6292
2016-08-09T13:44:10.456Z,6108